Latest Coastal Weather Observations for Port Kembla Harbour

IDN60701

Issued at 12:51 pm EST Thursday 18 July 2019 (issued every 10 minutes, with the page automatically refreshed every 10 minutes)

About coastal observations | Map of coastal stations | Coastal observations for NSW | Marine services | Other Formats
Station Details ID: 068253 Name: PORT KEMBLA NTC AWS Lat: -34.47 Lon: 150.91 Height: 0.0 m
Data from the previous 72 hours. | See also: Recent months for locations in New South Wales
Date/Time
EST
Wind Sea
Height
m
Swell Vis
km
Cloud Weather Temp
°C
Press
hPa
Rain since
9am
mm
Dir  Spd
kts
Gust
kts
Height
m
Period
s
Dir
18/12:30pm WSW 8 11 - - - - - - - 17.0 1013.9 -
18/12:00pm SW 8 12 - - - - - - - 16.9 1014.3 -
18/11:30am SW 8 12 - - - - - - - 16.6 1014.5 -
18/11:00am WSW 9 14 - - - - - - - 16.2 1014.8 -
18/10:30am W 10 13 - - - - - - - 15.7 1015.0 -
18/10:00am WSW 15 21 - - - - - - - 15.4 1015.1 -
18/09:30am WSW 10 15 - - - - - - - 15.3 1014.9 -
18/09:00am W 11 18 - - - - - - - 14.9 1014.5 -
18/08:30am WNW 17 22 - - - - - - - 14.1 1013.8 -
18/08:00am W 16 24 - - - - - - - 13.7 1013.7 -
18/07:30am W 19 30 - - - - - - - 13.7 1013.3 -
18/07:29am W 18 30 - - - - - - - 13.6 1013.2 -
18/07:00am W 15 24 - - - - - - - 13.5 1013.2 -
18/06:30am W 9 17 - - - - - - - 13.7 1012.6 -
18/06:00am WNW 9 15 - - - - - - - 13.7 1012.1 -
18/05:30am W 13 18 - - - - - - - 13.9 1011.9 -
18/05:00am W 10 13 - - - - - - - 13.7 1012.1 -
18/04:30am W 8 14 - - - - - - - 13.5 1012.0 -
18/04:00am W 14 20 - - - - - - - 13.7 1011.8 -
18/03:30am W 24 32 - - - - - - - 13.9 1011.3 -
18/03:00am WSW 22 35 - - - - - - - 13.7 1011.4 -
18/02:58am WSW 22 35 - - - - - - - 13.8 1011.5 -
18/02:30am W 20 26 - - - - - - - 13.7 1011.5 -
18/02:00am W 15 22 - - - - - - - 13.5 1011.8 -
18/01:30am WSW 10 17 - - - - - - - 13.5 1011.9 -
18/01:00am WSW 18 30 - - - - - - - 13.4 1012.0 -
18/12:30am W 19 31 - - - - - - - 13.7 1011.2 -
18/12:17am W 15 25 - - - - - - - 13.4 1011.3 -
18/12:00am WSW 15 26 - - - - - - - 13.3 1011.7 -
 
Date/Time
EST
Wind Sea
Height
m
Swell Vis
km
Cloud Weather Temp
°C
Press
hPa
Rain since
9am
mm
Dir  Spd
kts
Gust
kts
Height
m
Period
s
Dir
17/11:30pm W 19 31 - - - - - - - 13.3 1011.7 -
17/11:00pm W 19 32 - - - - - - - 13.4 1012.1 -
17/10:30pm W 22 34 - - - - - - - 13.6 1012.3 -
17/10:03pm W 24 35 - - - - - - - 13.6 1012.3 -
17/10:00pm W 24 32 - - - - - - - 13.6 1012.2 -
17/09:30pm W 26 39 - - - - - - - 13.6 1012.3 -
17/09:23pm W 22 39 - - - - - - - 13.7 1012.5 -
17/09:19pm W 18 28 - - - - - - - 13.6 1012.6 -
17/09:00pm WSW 14 28 - - - - - - - 13.8 1013.1 -
17/08:30pm W 15 34 - - - - - - - 13.8 1013.5 -
17/08:02pm W 18 28 - - - - - - - 13.6 1014.0 -
17/08:00pm W 20 30 - - - - - - - 13.7 1014.1 -
17/07:40pm WSW 20 30 - - - - - - - 13.7 1014.0 -
17/07:30pm WSW 17 25 - - - - - - - 13.7 1013.7 -
17/07:09pm WSW 15 29 - - - - - - - 13.8 1013.3 -
17/07:00pm WSW 11 21 - - - - - - - 13.9 1013.4 -
17/06:51pm W 14 27 - - - - - - - 14.0 1013.0 -
17/06:46pm W 12 27 - - - - - - - 14.1 1012.9 -
17/06:30pm W 7 15 - - - - - - - 14.3 1012.5 -
17/06:08pm W 16 27 - - - - - - - 14.6 1012.2 -
17/06:00pm W 19 27 - - - - - - - 14.7 1012.2 -
17/05:41pm W 15 25 - - - - - - - 14.9 1011.7 -
17/05:30pm W 14 22 - - - - - - - 15.0 1011.6 -
17/05:16pm W 16 27 - - - - - - - 15.0 1011.8 -
17/05:00pm W 17 25 - - - - - - - 15.3 1011.8 -
17/04:30pm W 12 19 - - - - - - - 15.9 1011.9 -
17/04:03pm W 17 28 - - - - - - - 16.5 1012.2 -
17/04:00pm W 17 24 - - - - - - - 16.6 1012.2 -
17/03:42pm W 14 22 - - - - - - - 17.0 1012.1 -
17/03:30pm W 7 11 - - - - - - - 17.6 1012.1 -
17/03:00pm W 9 14 - - - - - - - 17.5 1012.3 -
17/02:30pm W 16 23 - - - - - - - 17.0 1012.6 -
17/02:00pm W 14 20 - - - - - - - 17.3 1012.8 -
17/01:30pm WNW 14 21 - - - - - - - 17.2 1012.9 -
17/01:00pm W 13 19 - - - - - - - 17.1 1013.5 -
17/12:30pm WNW 16 24 - - - - - - - 16.9 1013.9 -
17/12:00pm WNW 12 21 - - - - - - - 16.4 1014.8 -
17/11:30am W 14 19 - - - - - - - 16.3 1015.7 -
17/11:00am W 13 17 - - - - - - - 16.0 1016.2 -
17/10:30am W 12 16 - - - - - - - 15.3 1016.7 -
17/10:00am W 14 19 - - - - - - - 14.8 1016.8 -
17/09:30am W 15 21 - - - - - - - 14.3 1017.1 -
17/09:00am W 15 20 - - - - - - - 13.7 1017.3 -
17/08:30am W 15 19 - - - - - - - 13.2 1017.4 -
17/08:00am W 13 16 - - - - - - - 12.7 1017.4 -
17/07:30am W 12 18 - - - - - - - 12.3 1017.3 -
17/07:00am W 14 18 - - - - - - - 12.4 1017.4 -
17/06:30am W 13 18 - - - - - - - 12.5 1017.3 -
17/06:00am W 12 15 - - - - - - - 12.5 1017.3 -
17/05:30am W 13 17 - - - - - - - 12.6 1017.1 -
17/05:00am W 14 22 - - - - - - - 12.9 1017.2 -
17/04:30am W 15 20 - - - - - - - 13.0 1017.1 -
17/04:00am W 13 17 - - - - - - - 12.9 1017.2 -
17/03:30am W 14 19 - - - - - - - 13.0 1017.3 -
17/03:00am W 15 20 - - - - - - - 13.2 1017.5 -
17/02:30am W 15 19 - - - - - - - 13.1 1017.6 -
17/02:00am W 15 18 - - - - - - - 13.0 1017.8 -
17/01:30am W 16 22 - - - - - - - 13.0 1018.0 -
17/01:00am W 12 18 - - - - - - - 13.0 1018.1 -
17/12:30am W 12 16 - - - - - - - 13.2 1018.1 -
17/12:00am W 14 19 - - - - - - - 13.3 1018.1 -
 
Date/Time
EST
Wind Sea
Height
m
Swell Vis
km
Cloud Weather Temp
°C
Press
hPa
Rain since
9am
mm
Dir  Spd
kts
Gust
kts
Height
m
Period
s
Dir
16/11:30pm W 15 19 - - - - - - - 13.4 1018.1 -
16/11:00pm W 12 15 - - - - - - - 13.3 1018.2 -
16/10:30pm W 13 17 - - - - - - - 13.6 1018.3 -
16/10:00pm W 11 16 - - - - - - - 13.7 1018.3 -
16/09:30pm WNW 12 16 - - - - - - - 14.1 1018.3 -
16/09:00pm W 13 18 - - - - - - - 14.0 1018.2 -
16/08:30pm W 16 21 - - - - - - - 14.1 1018.1 -
16/08:00pm W 16 19 - - - - - - - 14.3 1018.2 -
16/07:30pm W 16 21 - - - - - - - 14.4 1018.3 -
16/07:00pm W 15 19 - - - - - - - 14.4 1018.1 -
16/06:30pm W 15 19 - - - - - - - 14.7 1017.6 -
16/06:00pm W 16 20 - - - - - - - 15.1 1017.2 -
16/05:30pm W 16 21 - - - - - - - 15.4 1016.6 -
16/05:00pm W 17 25 - - - - - - - 15.9 1016.5 -
16/04:30pm W 15 24 - - - - - - - 16.6 1016.5 -
16/04:00pm W 16 24 - - - - - - - 17.1 1016.2 -
16/03:30pm W 17 25 - - - - - - - 17.6 1015.9 -
16/03:00pm W 19 25 - - - - - - - 18.0 1015.4 -
16/02:30pm W 20 26 - - - - - - - 18.5 1015.2 -
16/02:00pm W 18 22 - - - - - - - 18.6 1015.2 -
16/01:30pm W 15 21 - - - - - - - 18.8 1015.0 -
16/01:00pm W 14 20 - - - - - - - 18.5 1015.2 -
16/12:30pm W 14 21 - - - - - - - 18.3 1015.7 -
16/12:00pm W 12 17 - - - - - - - 17.9 1016.1 -
16/11:30am W 12 17 - - - - - - - 17.9 1016.4 -
16/11:00am W 12 17 - - - - - - - 17.8 1016.9 -
16/10:30am WSW 8 12 - - - - - - - 16.9 1017.3 -
16/10:00am W 11 17 - - - - - - - 16.4 1017.4 -
16/09:30am W 10 14 - - - - - - - 15.8 1017.2 -
16/09:00am W 10 13 - - - - - - - 15.1 1017.1 -
16/08:30am W 11 16 - - - - - - - 14.6 1016.8 -
16/08:00am W 16 22 - - - - - - - 14.1 1016.6 -
16/07:30am WSW 12 19 - - - - - - - 13.5 1016.7 -
16/07:00am W 14 19 - - - - - - - 13.7 1016.6 -
16/06:30am WNW 12 17 - - - - - - - 13.4 1016.3 -
16/06:00am WNW 10 14 - - - - - - - 13.4 1016.0 -
16/05:30am W 14 19 - - - - - - - 13.2 1015.3 -
16/05:00am W 16 22 - - - - - - - 13.3 1015.0 -
16/04:30am WNW 12 16 - - - - - - - 13.5 1015.2 -
16/04:00am W 15 20 - - - - - - - 13.6 1015.2 -
16/03:30am W 15 20 - - - - - - - 13.6 1015.3 -
16/03:00am W 13 19 - - - - - - - 13.6 1015.7 -
16/02:30am W 17 24 - - - - - - - 13.5 1015.8 -
16/02:00am W 17 23 - - - - - - - 13.3 1015.8 -
16/01:30am W 16 21 - - - - - - - 13.4 1016.1 -
16/01:00am WSW 17 23 - - - - - - - 13.9 1015.9 -
16/12:30am W 13 19 - - - - - - - 13.0 1016.3 -
16/12:00am W 16 22 - - - - - - - 13.0 1016.5 -
 
Date/Time
EST
Wind Sea
Height
m
Swell Vis
km
Cloud Weather Temp
°C
Press
hPa
Rain since
9am
mm
Dir  Spd
kts
Gust
kts
Height
m
Period
s
Dir
15/11:30pm WNW 11 14 - - - - - - - 13.0 1016.7 -
15/11:00pm W 11 17 - - - - - - - 13.2 1016.8 -
15/10:30pm WNW 11 15 - - - - - - - 13.1 1016.9 -
15/10:00pm W 15 20 - - - - - - - 13.2 1016.9 -
15/09:47pm W 16 27 - - - - - - - 13.2 1017.0 -
15/09:30pm W 13 19 - - - - - - - 13.1 1017.0 -
15/09:00pm W 15 21 - - - - - - - 13.1 1017.2 -
15/08:30pm WNW 11 15 - - - - - - - 13.2 1017.3 -
15/08:00pm W 13 17 - - - - - - - 13.3 1017.4 -
15/07:30pm W 11 15 - - - - - - - 13.3 1017.5 -
15/07:00pm W 10 12 - - - - - - - 13.4 1017.7 -
15/06:30pm W 11 15 - - - - - - - 13.9 1017.8 -
15/06:00pm W 14 21 - - - - - - - 14.5 1017.4 -
15/05:30pm W 11 17 - - - - - - - 14.8 1016.9 -
15/05:00pm W 10 14 - - - - - - - 15.1 1016.3 -
15/04:30pm W 12 17 - - - - - - - 15.8 1016.2 -
15/04:00pm W 15 20 - - - - - - - 15.9 1015.9 -
15/03:30pm W 16 22 - - - - - - - 16.2 1015.6 -
15/03:00pm W 14 19 - - - - - - - 16.4 1015.6 -
15/02:30pm WSW 12 18 - - - - - - - 16.4 1015.4 -
15/02:00pm WSW 13 18 - - - - - - - 16.2 1015.2 -
15/01:30pm WSW 12 20 - - - - - - - 16.0 1015.3 -
15/01:00pm SW 11 18 - - - - - - - 16.0 1015.3 -

Other formats

Comma delimited format used in spreadsheet applications
http://www.bom.gov.au/fwo/IDN60701/IDN60701.95745.axf

JavaScript Object Notation format (JSON) in row-major order
http://www.bom.gov.au/fwo/IDN60701/IDN60701.95745.json

Data quality

Most of these data are generated automatically and are frequently updated. Quality checks on data are not normally performed. It is possible for incorrect values to appear. Refer to information at About Latest Weather Observations and please check the disclaimer before using these data.